sensor_id;sensor_type;location;lat;lon;timestamp;P1;durP1;ratioP1;P2;durP2;ratioP2
40555;SDS011;26250;45.422;11.100;2022-10-26T07:26:15;29.67;;;17.45;;
40555;SDS011;26250;45.422;11.100;2022-10-26T07:28:42;30.05;;;19.92;;
40555;SDS011;26250;45.422;11.100;2022-10-26T07:31:09;42.53;;;19.50;;
40555;SDS011;26250;45.422;11.100;2022-10-26T07:33:36;45.25;;;22.05;;
40555;SDS011;26250;45.422;11.100;2022-10-26T07:36:07;31.63;;;20.13;;
40555;SDS011;26250;45.422;11.100;2022-10-26T07:38:36;44.92;;;20.52;;
40555;SDS011;26250;45.422;11.100;2022-10-26T07:41:04;28.85;;;19.58;;
40555;SDS011;26250;45.422;11.100;2022-10-26T07:43:31;31.38;;;19.38;;
40555;SDS011;26250;45.422;11.100;2022-10-26T07:45:58;36.85;;;18.60;;
40555;SDS011;26250;45.422;11.100;2022-10-26T07:48:25;29.85;;;18.45;;
40555;SDS011;26250;45.422;11.100;2022-10-26T07:50:52;33.22;;;18.77;;
40555;SDS011;26250;45.422;11.100;2022-10-26T07:53:18;33.65;;;18.60;;
40555;SDS011;26250;45.422;11.100;2022-10-26T07:55:53;21.90;;;18.27;;
40555;SDS011;26250;45.422;11.100;2022-10-26T07:58:20;32.42;;;19.45;;
40555;SDS011;26250;45.422;11.100;2022-10-26T08:00:51;22.35;;;18.48;;
40555;SDS011;26250;45.422;11.100;2022-10-26T08:03:18;34.08;;;19.52;;
40555;SDS011;26250;45.422;11.100;2022-10-26T08:05:46;36.38;;;19.52;;
40555;SDS011;26250;45.422;11.100;2022-10-26T08:08:16;35.85;;;19.75;;
40555;SDS011;26250;45.422;11.100;2022-10-26T08:10:44;38.97;;;19.67;;
40555;SDS011;26250;45.422;11.100;2022-10-26T08:13:11;36.53;;;20.02;;
40555;SDS011;26250;45.422;11.100;2022-10-26T08:15:39;27.70;;;19.38;;
40555;SDS011;26250;45.422;11.100;2022-10-26T08:18:06;29.45;;;18.70;;
40555;SDS011;26250;45.422;11.100;2022-10-26T08:20:33;37.08;;;19.13;;
40555;SDS011;26250;45.422;11.100;2022-10-26T08:23:00;28.45;;;19.75;;
40555;SDS011;26250;45.422;11.100;2022-10-26T08:25:26;28.25;;;18.20;;
40555;SDS011;26250;45.422;11.100;2022-10-26T08:27:53;30.58;;;19.63;;
40555;SDS011;26250;45.422;11.100;2022-10-26T08:30:20;31.42;;;18.65;;
40555;SDS011;26250;45.422;11.100;2022-10-26T08:32:47;28.63;;;18.27;;
40555;SDS011;26250;45.422;11.100;2022-10-26T08:35:15;40.65;;;19.27;;
40555;SDS011;26250;45.422;11.100;2022-10-26T08:37:41;34.67;;;18.67;;
40555;SDS011;26250;45.422;11.100;2022-10-26T08:40:10;29.38;;;20.25;;
40555;SDS011;26250;45.422;11.100;2022-10-26T08:42:42;33.13;;;18.90;;
40555;SDS011;26250;45.422;11.100;2022-10-26T08:45:19;25.10;;;18.70;;
40555;SDS011;26250;45.422;11.100;2022-10-26T08:47:59;31.90;;;17.42;;
40555;SDS011;26250;45.422;11.100;2022-10-26T08:50:30;26.33;;;16.63;;
40555;SDS011;26250;45.422;11.100;2022-10-26T08:53:10;40.50;;;16.92;;
40555;SDS011;26250;45.422;11.100;2022-10-26T08:55:44;27.77;;;16.73;;
40555;SDS011;26250;45.422;11.100;2022-10-26T08:58:16;24.20;;;15.85;;
40555;SDS011;26250;45.422;11.100;2022-10-26T09:00:47;27.27;;;16.02;;
40555;SDS011;26250;45.422;11.100;2022-10-26T09:03:16;29.10;;;17.17;;
40555;SDS011;26250;45.422;11.100;2022-10-26T09:05:46;21.70;;;16.60;;
40555;SDS011;26250;45.422;11.100;2022-10-26T09:08:38;31.20;;;16.40;;
40555;SDS011;26250;45.422;11.100;2022-10-26T09:20:08;29.77;;;16.75;;
40555;SDS011;26250;45.422;11.100;2022-10-26T09:22:50;27.27;;;16.10;;
40555;SDS011;26250;45.422;11.100;2022-10-26T09:25:25;21.95;;;15.82;;
40555;SDS011;26250;45.422;11.100;2022-10-26T09:28:01;24.02;;;15.80;;
40555;SDS011;26250;45.422;11.100;2022-10-26T09:30:28;30.52;;;16.55;;
40555;SDS011;26250;45.422;11.100;2022-10-26T09:32:59;36.10;;;18.17;;
40555;SDS011;26250;45.422;11.100;2022-10-26T09:35:32;25.52;;;17.33;;
40555;SDS011;26250;45.422;11.100;2022-10-26T09:38:30;20.67;;;15.85;;
40555;SDS011;26250;45.422;11.100;2022-10-26T09:47:04;35.50;;;19.02;;
40555;SDS011;26250;45.422;11.100;2022-10-26T09:49:48;31.55;;;18.20;;
40555;SDS011;26250;45.422;11.100;2022-10-26T09:52:21;28.52;;;17.33;;
40555;SDS011;26250;45.422;11.100;2022-10-26T09:54:47;29.73;;;18.27;;
40555;SDS011;26250;45.422;11.100;2022-10-26T09:57:17;41.58;;;18.77;;
40555;SDS011;26250;45.422;11.100;2022-10-26T09:59:45;32.67;;;19.58;;
40555;SDS011;26250;45.422;11.100;2022-10-26T10:05:24;27.20;;;20.02;;
40555;SDS011;26250;45.422;11.100;2022-10-26T10:08:16;38.88;;;19.52;;
40555;SDS011;26250;45.422;11.100;2022-10-26T10:10:52;31.58;;;21.40;;
40555;SDS011;26250;45.422;11.100;2022-10-26T10:13:22;38.53;;;21.27;;
40555;SDS011;26250;45.422;11.100;2022-10-26T10:16:34;58.42;;;20.67;;
40555;SDS011;26250;45.422;11.100;2022-10-26T10:18:51;33.67;;;19.50;;
40555;SDS011;26250;45.422;11.100;2022-10-26T10:29:27;31.30;;;20.65;;
40555;SDS011;26250;45.422;11.100;2022-10-26T10:32:01;39.10;;;20.83;;
40555;SDS011;26250;45.422;11.100;2022-10-26T10:34:29;32.15;;;20.85;;
40555;SDS011;26250;45.422;11.100;2022-10-26T10:36:57;32.35;;;20.00;;
40555;SDS011;26250;45.422;11.100;2022-10-26T10:39:36;32.63;;;21.67;;
40555;SDS011;26250;45.422;11.100;2022-10-26T10:42:10;31.27;;;20.73;;
40555;SDS011;26250;45.422;11.100;2022-10-26T10:44:43;36.97;;;20.85;;
40555;SDS011;26250;45.422;11.100;2022-10-26T10:47:53;31.98;;;21.60;;
40555;SDS011;26250;45.422;11.100;2022-10-26T10:52:32;28.20;;;20.88;;
40555;SDS011;26250;45.422;11.100;2022-10-26T11:00:21;32.70;;;20.23;;
40555;SDS011;26250;45.422;11.100;2022-10-26T11:02:52;28.17;;;20.10;;
40555;SDS011;26250;45.422;11.100;2022-10-26T11:08:45;36.28;;;18.88;;
40555;SDS011;26250;45.422;11.100;2022-10-26T11:11:34;27.85;;;19.85;;
40555;SDS011;26250;45.422;11.100;2022-10-26T11:14:24;28.13;;;19.13;;
40555;SDS011;26250;45.422;11.100;2022-10-26T11:17:07;29.35;;;20.30;;
40555;SDS011;26250;45.422;11.100;2022-10-26T11:19:46;27.48;;;19.95;;
40555;SDS011;26250;45.422;11.100;2022-10-26T11:22:26;29.67;;;20.10;;
40555;SDS011;26250;45.422;11.100;2022-10-26T11:25:02;31.55;;;20.45;;
40555;SDS011;26250;45.422;11.100;2022-10-26T11:27:38;31.63;;;21.27;;
40555;SDS011;26250;45.422;11.100;2022-10-26T11:30:19;36.97;;;18.35;;
40555;SDS011;26250;45.422;11.100;2022-10-26T11:35:54;31.85;;;20.70;;
40555;SDS011;26250;45.422;11.100;2022-10-26T11:41:19;27.38;;;20.17;;
40555;SDS011;26250;45.422;11.100;2022-10-26T11:46:49;31.10;;;19.65;;
40555;SDS011;26250;45.422;11.100;2022-10-26T11:49:33;33.60;;;20.55;;
40555;SDS011;26250;45.422;11.100;2022-10-26T11:55:18;40.00;;;20.42;;
40555;SDS011;26250;45.422;11.100;2022-10-26T11:57:47;34.72;;;21.05;;
40555;SDS011;26250;45.422;11.100;2022-10-26T12:00:17;26.45;;;19.83;;
40555;SDS011;26250;45.422;11.100;2022-10-26T12:03:22;28.88;;;19.27;;
40555;SDS011;26250;45.422;11.100;2022-10-26T12:05:45;30.92;;;19.38;;
40555;SDS011;26250;45.422;11.100;2022-10-26T12:08:20;28.75;;;20.83;;
40555;SDS011;26250;45.422;11.100;2022-10-26T12:10:54;30.80;;;20.45;;
40555;SDS011;26250;45.422;11.100;2022-10-26T12:13:27;31.00;;;21.05;;
40555;SDS011;26250;45.422;11.100;2022-10-26T12:21:50;26.52;;;19.45;;
40555;SDS011;26250;45.422;11.100;2022-10-26T12:24:25;24.48;;;20.90;;
40555;SDS011;26250;45.422;11.100;2022-10-26T12:26:56;29.73;;;20.00;;
40555;SDS011;26250;45.422;11.100;2022-10-26T12:39:49;25.90;;;18.05;;
40555;SDS011;26250;45.422;11.100;2022-10-26T12:58:29;33.88;;;19.73;;
40555;SDS011;26250;45.422;11.100;2022-10-26T13:03:33;31.33;;;19.67;;
40555;SDS011;26250;45.422;11.100;2022-10-26T13:09:22;28.42;;;18.27;;
40555;SDS011;26250;45.422;11.100;2022-10-26T13:11:53;31.70;;;18.15;;
40555;SDS011;26250;45.422;11.100;2022-10-26T13:17:03;22.63;;;16.92;;
40555;SDS011;26250;45.422;11.100;2022-10-26T13:19:42;26.98;;;16.20;;
40555;SDS011;26250;45.422;11.100;2022-10-26T13:22:18;22.00;;;16.02;;
40555;SDS011;26250;45.422;11.100;2022-10-26T13:24:53;31.45;;;17.02;;
40555;SDS011;26250;45.422;11.100;2022-10-26T13:27:38;22.48;;;15.13;;
40555;SDS011;26250;45.422;11.100;2022-10-26T13:30:17;28.80;;;16.70;;
40555;SDS011;26250;45.422;11.100;2022-10-26T13:32:55;31.05;;;15.10;;
40555;SDS011;26250;45.422;11.100;2022-10-26T13:35:23;23.20;;;15.57;;
40555;SDS011;26250;45.422;11.100;2022-10-26T13:37:52;23.95;;;13.70;;
40555;SDS011;26250;45.422;11.100;2022-10-26T13:40:22;21.95;;;14.10;;
40555;SDS011;26250;45.422;11.100;2022-10-26T13:42:57;27.17;;;15.27;;
40555;SDS011;26250;45.422;11.100;2022-10-26T13:45:30;22.45;;;15.10;;
40555;SDS011;26250;45.422;11.100;2022-10-26T13:48:29;24.90;;;14.23;;
40555;SDS011;26250;45.422;11.100;2022-10-26T13:57:14;32.30;;;16.85;;
40555;SDS011;26250;45.422;11.100;2022-10-26T13:59:46;23.13;;;15.82;;
40555;SDS011;26250;45.422;11.100;2022-10-26T14:04:45;22.23;;;14.43;;
40555;SDS011;26250;45.422;11.100;2022-10-26T14:07:17;30.48;;;16.55;;
40555;SDS011;26250;45.422;11.100;2022-10-26T14:10:05;28.20;;;16.13;;
40555;SDS011;26250;45.422;11.100;2022-10-26T14:12:32;24.52;;;16.05;;
40555;SDS011;26250;45.422;11.100;2022-10-26T14:15:08;23.73;;;16.35;;
40555;SDS011;26250;45.422;11.100;2022-10-26T14:17:35;34.13;;;18.00;;
40555;SDS011;26250;45.422;11.100;2022-10-26T14:20:05;28.65;;;18.40;;
40555;SDS011;26250;45.422;11.100;2022-10-26T14:22:32;34.05;;;19.20;;
40555;SDS011;26250;45.422;11.100;2022-10-26T14:24:59;34.88;;;18.38;;
40555;SDS011;26250;45.422;11.100;2022-10-26T14:27:30;27.75;;;19.15;;
40555;SDS011;26250;45.422;11.100;2022-10-26T14:29:58;27.90;;;20.13;;
40555;SDS011;26250;45.422;11.100;2022-10-26T14:32:46;25.23;;;18.75;;
40555;SDS011;26250;45.422;11.100;2022-10-26T14:35:14;28.30;;;19.23;;
40555;SDS011;26250;45.422;11.100;2022-10-26T14:40:26;38.55;;;21.95;;
40555;SDS011;26250;45.422;11.100;2022-10-26T14:42:59;28.33;;;21.25;;
40555;SDS011;26250;45.422;11.100;2022-10-26T14:45:29;36.35;;;21.42;;
40555;SDS011;26250;45.422;11.100;2022-10-26T14:48:30;46.35;;;23.27;;
40555;SDS011;26250;45.422;11.100;2022-10-26T14:53:47;37.72;;;22.83;;
40555;SDS011;26250;45.422;11.100;2022-10-26T14:56:19;31.63;;;21.88;;
40555;SDS011;26250;45.422;11.100;2022-10-26T14:58:58;35.25;;;21.92;;
40555;SDS011;26250;45.422;11.100;2022-10-26T15:01:45;35.30;;;22.38;;
40555;SDS011;26250;45.422;11.100;2022-10-26T15:04:37;36.45;;;22.50;;
40555;SDS011;26250;45.422;11.100;2022-10-26T15:09:48;35.28;;;22.60;;
40555;SDS011;26250;45.422;11.100;2022-10-26T15:12:35;30.52;;;24.15;;
40555;SDS011;26250;45.422;11.100;2022-10-26T15:15:18;45.40;;;23.50;;
40555;SDS011;26250;45.422;11.100;2022-10-26T15:17:53;36.95;;;22.23;;
40555;SDS011;26250;45.422;11.100;2022-10-26T15:20:22;44.50;;;25.80;;
40555;SDS011;26250;45.422;11.100;2022-10-26T15:22:55;35.90;;;23.30;;
40555;SDS011;26250;45.422;11.100;2022-10-26T15:25:28;37.25;;;22.58;;
40555;SDS011;26250;45.422;11.100;2022-10-26T15:28:17;40.72;;;22.67;;
40555;SDS011;26250;45.422;11.100;2022-10-26T15:31:04;30.88;;;21.98;;
40555;SDS011;26250;45.422;11.100;2022-10-26T15:33:40;39.72;;;22.35;;
40555;SDS011;26250;45.422;11.100;2022-10-26T15:36:24;36.80;;;22.63;;
40555;SDS011;26250;45.422;11.100;2022-10-26T15:38:52;37.78;;;22.60;;
40555;SDS011;26250;45.422;11.100;2022-10-26T15:41:35;46.28;;;21.92;;
40555;SDS011;26250;45.422;11.100;2022-10-26T15:44:10;28.40;;;22.00;;
40555;SDS011;26250;45.422;11.100;2022-10-26T15:46:46;41.92;;;23.10;;
40555;SDS011;26250;45.422;11.100;2022-10-26T15:49:14;32.05;;;21.98;;
40555;SDS011;26250;45.422;11.100;2022-10-26T15:51:43;47.78;;;24.33;;
40555;SDS011;26250;45.422;11.100;2022-10-26T15:54:12;100.60;;;27.70;;
40555;SDS011;26250;45.422;11.100;2022-10-26T15:56:39;180.88;;;36.97;;
40555;SDS011;26250;45.422;11.100;2022-10-26T15:59:18;103.60;;;27.95;;
40555;SDS011;26250;45.422;11.100;2022-10-26T16:01:45;63.20;;;26.48;;
40555;SDS011;26250;45.422;11.100;2022-10-26T16:04:12;40.28;;;21.25;;
40555;SDS011;26250;45.422;11.100;2022-10-26T16:06:40;49.20;;;20.90;;
40555;SDS011;26250;45.422;11.100;2022-10-26T16:09:15;37.20;;;21.40;;
40555;SDS011;26250;45.422;11.100;2022-10-26T16:11:43;86.82;;;24.67;;
40555;SDS011;26250;45.422;11.100;2022-10-26T16:14:10;39.63;;;19.70;;
40555;SDS011;26250;45.422;11.100;2022-10-26T16:16:38;52.28;;;21.42;;
40555;SDS011;26250;45.422;11.100;2022-10-26T16:19:05;48.65;;;21.40;;
40555;SDS011;26250;45.422;11.100;2022-10-26T16:21:55;52.63;;;22.48;;
40555;SDS011;26250;45.422;11.100;2022-10-26T16:24:21;35.47;;;21.95;;
40555;SDS011;26250;45.422;11.100;2022-10-26T16:26:48;39.17;;;19.83;;
40555;SDS011;26250;45.422;11.100;2022-10-26T16:29:15;37.33;;;21.60;;
40555;SDS011;26250;45.422;11.100;2022-10-26T16:31:43;148.45;;;28.70;;
40555;SDS011;26250;45.422;11.100;2022-10-26T16:34:10;54.08;;;22.52;;
40555;SDS011;26250;45.422;11.100;2022-10-26T16:36:37;45.00;;;19.00;;
40555;SDS011;26250;45.422;11.100;2022-10-26T16:39:04;45.55;;;19.98;;
40555;SDS011;26250;45.422;11.100;2022-10-26T16:41:32;55.47;;;27.27;;
40555;SDS011;26250;45.422;11.100;2022-10-26T16:43:59;58.85;;;25.55;;
40555;SDS011;26250;45.422;11.100;2022-10-26T16:46:26;47.22;;;23.88;;
40555;SDS011;26250;45.422;11.100;2022-10-26T16:48:53;27.20;;;21.48;;
40555;SDS011;26250;45.422;11.100;2022-10-26T16:51:24;46.88;;;21.48;;
40555;SDS011;26250;45.422;11.100;2022-10-26T16:53:53;60.95;;;21.67;;
40555;SDS011;26250;45.422;11.100;2022-10-26T16:56:22;31.48;;;18.45;;
40555;SDS011;26250;45.422;11.100;2022-10-26T16:58:53;29.65;;;17.35;;
40555;SDS011;26250;45.422;11.100;2022-10-26T17:01:22;29.77;;;16.83;;
40555;SDS011;26250;45.422;11.100;2022-10-26T17:03:49;31.10;;;16.30;;
40555;SDS011;26250;45.422;11.100;2022-10-26T17:06:17;27.75;;;17.50;;
40555;SDS011;26250;45.422;11.100;2022-10-26T17:08:45;27.85;;;18.17;;
40555;SDS011;26250;45.422;11.100;2022-10-26T17:11:13;35.70;;;18.98;;
40555;SDS011;26250;45.422;11.100;2022-10-26T17:16:13;31.40;;;20.65;;
40555;SDS011;26250;45.422;11.100;2022-10-26T17:18:45;33.22;;;20.02;;
40555;SDS011;26250;45.422;11.100;2022-10-26T17:21:14;34.55;;;18.75;;
40555;SDS011;26250;45.422;11.100;2022-10-26T17:23:42;33.47;;;21.10;;
40555;SDS011;26250;45.422;11.100;2022-10-26T17:26:10;36.35;;;22.02;;
40555;SDS011;26250;45.422;11.100;2022-10-26T17:28:41;27.27;;;19.95;;
40555;SDS011;26250;45.422;11.100;2022-10-26T17:31:09;30.33;;;18.88;;
40555;SDS011;26250;45.422;11.100;2022-10-26T17:33:38;31.63;;;21.58;;
40555;SDS011;26250;45.422;11.100;2022-10-26T17:36:08;32.88;;;21.35;;
40555;SDS011;26250;45.422;11.100;2022-10-26T17:38:38;34.13;;;21.92;;
40555;SDS011;26250;45.422;11.100;2022-10-26T17:41:07;28.80;;;20.33;;
40555;SDS011;26250;45.422;11.100;2022-10-26T17:43:36;37.05;;;20.70;;
40555;SDS011;26250;45.422;11.100;2022-10-26T17:46:09;50.78;;;20.67;;
40555;SDS011;26250;45.422;11.100;2022-10-26T17:48:46;48.88;;;22.77;;
40555;SDS011;26250;45.422;11.100;2022-10-26T17:51:14;51.47;;;24.15;;
40555;SDS011;26250;45.422;11.100;2022-10-26T17:53:45;49.47;;;23.08;;
40555;SDS011;26250;45.422;11.100;2022-10-26T17:56:14;44.03;;;23.48;;
40555;SDS011;26250;45.422;11.100;2022-10-26T17:58:50;36.13;;;23.58;;
40555;SDS011;26250;45.422;11.100;2022-10-26T18:01:21;28.98;;;22.35;;
40555;SDS011;26250;45.422;11.100;2022-10-26T18:03:49;43.75;;;22.00;;
40555;SDS011;26250;45.422;11.100;2022-10-26T18:06:19;33.47;;;21.58;;
40555;SDS011;26250;45.422;11.100;2022-10-26T18:08:46;51.28;;;23.55;;
40555;SDS011;26250;45.422;11.100;2022-10-26T18:11:17;43.90;;;22.90;;
40555;SDS011;26250;45.422;11.100;2022-10-26T18:13:52;39.75;;;25.65;;
40555;SDS011;26250;45.422;11.100;2022-10-26T18:16:20;45.85;;;26.45;;
40555;SDS011;26250;45.422;11.100;2022-10-26T18:18:48;38.03;;;21.40;;
40555;SDS011;26250;45.422;11.100;2022-10-26T18:21:22;47.85;;;23.15;;
40555;SDS011;26250;45.422;11.100;2022-10-26T18:23:50;51.50;;;24.60;;
40555;SDS011;26250;45.422;11.100;2022-10-26T18:26:19;29.92;;;21.30;;
40555;SDS011;26250;45.422;11.100;2022-10-26T18:28:47;27.88;;;20.38;;
40555;SDS011;26250;45.422;11.100;2022-10-26T18:31:18;30.77;;;20.63;;
40555;SDS011;26250;45.422;11.100;2022-10-26T18:33:47;32.30;;;20.65;;
40555;SDS011;26250;45.422;11.100;2022-10-26T18:36:15;38.83;;;21.92;;
40555;SDS011;26250;45.422;11.100;2022-10-26T18:38:43;39.53;;;22.88;;
40555;SDS011;26250;45.422;11.100;2022-10-26T18:41:12;30.42;;;22.95;;
40555;SDS011;26250;45.422;11.100;2022-10-26T18:43:41;33.53;;;22.85;;
40555;SDS011;26250;45.422;11.100;2022-10-26T18:46:11;32.83;;;21.20;;
40555;SDS011;26250;45.422;11.100;2022-10-26T18:48:45;42.30;;;20.73;;
40555;SDS011;26250;45.422;11.100;2022-10-26T18:51:13;43.70;;;20.45;;
40555;SDS011;26250;45.422;11.100;2022-10-26T18:53:43;36.63;;;20.85;;
40555;SDS011;26250;45.422;11.100;2022-10-26T18:56:12;33.75;;;21.23;;
40555;SDS011;26250;45.422;11.100;2022-10-26T18:58:41;38.58;;;23.13;;
40555;SDS011;26250;45.422;11.100;2022-10-26T19:01:13;52.33;;;25.60;;
40555;SDS011;26250;45.422;11.100;2022-10-26T19:03:43;40.47;;;23.45;;
40555;SDS011;26250;45.422;11.100;2022-10-26T19:08:42;33.00;;;23.77;;
40555;SDS011;26250;45.422;11.100;2022-10-26T19:11:11;36.03;;;22.85;;
40555;SDS011;26250;45.422;11.100;2022-10-26T19:13:39;40.00;;;23.75;;
40555;SDS011;26250;45.422;11.100;2022-10-26T19:16:07;38.42;;;22.98;;
40555;SDS011;26250;45.422;11.100;2022-10-26T19:18:53;39.40;;;22.58;;
40555;SDS011;26250;45.422;11.100;2022-10-26T19:21:21;39.72;;;24.35;;
40555;SDS011;26250;45.422;11.100;2022-10-26T19:23:50;42.03;;;23.85;;
40555;SDS011;26250;45.422;11.100;2022-10-26T19:26:19;37.30;;;22.65;;
40555;SDS011;26250;45.422;11.100;2022-10-26T19:28:52;29.98;;;24.33;;
40555;SDS011;26250;45.422;11.100;2022-10-26T19:31:20;42.85;;;25.48;;
40555;SDS011;26250;45.422;11.100;2022-10-26T19:33:52;46.50;;;26.97;;
40555;SDS011;26250;45.422;11.100;2022-10-26T19:36:21;40.88;;;26.60;;
40555;SDS011;26250;45.422;11.100;2022-10-26T19:38:49;112.43;;;29.27;;
40555;SDS011;26250;45.422;11.100;2022-10-26T19:41:16;52.15;;;30.20;;
40555;SDS011;26250;45.422;11.100;2022-10-26T19:43:44;53.85;;;29.77;;
40555;SDS011;26250;45.422;11.100;2022-10-26T19:46:12;41.15;;;28.58;;
40555;SDS011;26250;45.422;11.100;2022-10-26T19:48:46;49.25;;;29.38;;
40555;SDS011;26250;45.422;11.100;2022-10-26T19:51:15;43.80;;;28.75;;
40555;SDS011;26250;45.422;11.100;2022-10-26T19:53:42;34.45;;;26.70;;
40555;SDS011;26250;45.422;11.100;2022-10-26T19:56:09;37.08;;;26.02;;
40555;SDS011;26250;45.422;11.100;2022-10-26T19:58:39;36.20;;;26.73;;
40555;SDS011;26250;45.422;11.100;2022-10-26T20:01:09;33.97;;;25.17;;
40555;SDS011;26250;45.422;11.100;2022-10-26T20:03:39;46.28;;;27.38;;
40555;SDS011;26250;45.422;11.100;2022-10-26T20:06:08;41.95;;;26.17;;
40555;SDS011;26250;45.422;11.100;2022-10-26T20:08:39;37.47;;;28.35;;
40555;SDS011;26250;45.422;11.100;2022-10-26T20:11:09;36.22;;;28.20;;
40555;SDS011;26250;45.422;11.100;2022-10-26T20:13:41;44.03;;;29.70;;
40555;SDS011;26250;45.422;11.100;2022-10-26T20:16:09;48.72;;;30.83;;
40555;SDS011;26250;45.422;11.100;2022-10-26T20:18:38;37.22;;;28.38;;
40555;SDS011;26250;45.422;11.100;2022-10-26T20:21:13;42.28;;;28.95;;
40555;SDS011;26250;45.422;11.100;2022-10-26T20:23:40;43.25;;;30.15;;
40555;SDS011;26250;45.422;11.100;2022-10-26T20:26:08;41.67;;;31.58;;
40555;SDS011;26250;45.422;11.100;2022-10-26T20:28:42;45.45;;;28.90;;
40555;SDS011;26250;45.422;11.100;2022-10-26T20:31:11;40.40;;;30.20;;
40555;SDS011;26250;45.422;11.100;2022-10-26T20:33:39;52.70;;;29.23;;
40555;SDS011;26250;45.422;11.100;2022-10-26T20:36:06;39.78;;;28.33;;
40555;SDS011;26250;45.422;11.100;2022-10-26T20:38:33;42.95;;;31.63;;
40555;SDS011;26250;45.422;11.100;2022-10-26T20:41:00;40.45;;;28.80;;
40555;SDS011;26250;45.422;11.100;2022-10-26T20:43:34;39.25;;;29.17;;
40555;SDS011;26250;45.422;11.100;2022-10-26T20:46:04;38.45;;;27.88;;
40555;SDS011;26250;45.422;11.100;2022-10-26T20:48:31;42.97;;;30.02;;
40555;SDS011;26250;45.422;11.100;2022-10-26T20:51:02;45.05;;;31.23;;
40555;SDS011;26250;45.422;11.100;2022-10-26T20:53:42;49.40;;;32.47;;
40555;SDS011;26250;45.422;11.100;2022-10-26T20:56:32;50.78;;;31.38;;
40555;SDS011;26250;45.422;11.100;2022-10-26T20:59:00;44.47;;;30.08;;
40555;SDS011;26250;45.422;11.100;2022-10-26T21:01:31;47.35;;;32.47;;
40555;SDS011;26250;45.422;11.100;2022-10-26T21:04:00;37.13;;;31.37;;
40555;SDS011;26250;45.422;11.100;2022-10-26T21:06:28;41.45;;;31.17;;
